sensor_id;sensor_type;location;lat;lon;timestamp;pressure;altitude;pressure_sealevel;temperature;humidity
46778;BME280;32536;47.128;8.746;2023-02-28T00:01:27;91606.13;;;0.17;56.74
46778;BME280;32536;47.128;8.746;2023-02-28T00:03:53;91604.81;;;0.23;56.73
46778;BME280;32536;47.128;8.746;2023-02-28T00:06:29;91592.38;;;0.24;56.55
46778;BME280;32536;47.128;8.746;2023-02-28T00:08:56;91604.88;;;0.27;56.57
46778;BME280;32536;47.128;8.746;2023-02-28T00:11:23;91602.75;;;0.32;56.67
46778;BME280;32536;47.128;8.746;2023-02-28T00:13:50;91603.94;;;0.35;56.44
46778;BME280;32536;47.128;8.746;2023-02-28T00:16:21;91614.38;;;0.31;56.59
46778;BME280;32536;47.128;8.746;2023-02-28T00:18:49;91604.28;;;0.34;56.60
46778;BME280;32536;47.128;8.746;2023-02-28T00:21:18;91601.81;;;0.41;56.42
46778;BME280;32536;47.128;8.746;2023-02-28T00:23:46;91603.34;;;0.42;56.48
46778;BME280;32536;47.128;8.746;2023-02-28T00:26:13;91601.81;;;0.41;56.44
46778;BME280;32536;47.128;8.746;2023-02-28T00:28:39;91603.34;;;0.42;56.66
46778;BME280;32536;47.128;8.746;2023-02-28T00:31:06;91608.34;;;0.47;56.37
46778;BME280;32536;47.128;8.746;2023-02-28T00:33:33;91605.19;;;0.41;56.16
46778;BME280;32536;47.128;8.746;2023-02-28T00:36:08;91599.09;;;0.37;56.51
46778;BME280;32536;47.128;8.746;2023-02-28T00:38:37;91604.00;;;0.39;56.39
46778;BME280;32536;47.128;8.746;2023-02-28T00:41:05;91605.13;;;0.38;56.59
46778;BME280;32536;47.128;8.746;2023-02-28T00:43:33;91601.38;;;0.39;56.37
46778;BME280;32536;47.128;8.746;2023-02-28T00:46:01;91595.72;;;0.37;56.37
46778;BME280;32536;47.128;8.746;2023-02-28T00:48:28;91597.13;;;0.34;56.48
46778;BME280;32536;47.128;8.746;2023-02-28T00:50:55;91589.56;;;0.32;56.34
46778;BME280;32536;47.128;8.746;2023-02-28T00:53:22;91592.22;;;0.32;56.64
46778;BME280;32536;47.128;8.746;2023-02-28T00:55:50;91601.22;;;0.31;56.37
46778;BME280;32536;47.128;8.746;2023-02-28T00:58:17;91594.09;;;0.32;56.42
46778;BME280;32536;47.128;8.746;2023-02-28T01:00:44;91596.81;;;0.36;56.60
46778;BME280;32536;47.128;8.746;2023-02-28T01:03:16;91594.56;;;0.38;56.65
46778;BME280;32536;47.128;8.746;2023-02-28T01:05:44;91591.94;;;0.38;56.51
46778;BME280;32536;47.128;8.746;2023-02-28T01:08:11;91596.53;;;0.41;57.01
46778;BME280;32536;47.128;8.746;2023-02-28T01:10:39;91594.41;;;0.46;56.72
46778;BME280;32536;47.128;8.746;2023-02-28T01:13:06;91590.75;;;0.51;56.81
46778;BME280;32536;47.128;8.746;2023-02-28T01:15:33;91593.13;;;0.56;56.63
46778;BME280;32536;47.128;8.746;2023-02-28T01:18:00;91589.44;;;0.61;56.69
46778;BME280;32536;47.128;8.746;2023-02-28T01:20:27;91591.84;;;0.66;56.68
46778;BME280;32536;47.128;8.746;2023-02-28T01:22:54;91595.81;;;0.76;56.54
46778;BME280;32536;47.128;8.746;2023-02-28T01:25:20;91593.00;;;0.85;56.48
46778;BME280;32536;47.128;8.746;2023-02-28T01:27:47;91596.53;;;0.92;56.85
46778;BME280;32536;47.128;8.746;2023-02-28T01:30:14;91583.94;;;1.02;56.81
46778;BME280;32536;47.128;8.746;2023-02-28T01:32:41;91589.06;;;1.14;56.43
46778;BME280;32536;47.128;8.746;2023-02-28T01:35:08;91595.25;;;1.22;56.32
46778;BME280;32536;47.128;8.746;2023-02-28T01:37:34;91593.19;;;1.31;56.10
46778;BME280;32536;47.128;8.746;2023-02-28T01:40:02;91586.50;;;1.37;56.27
46778;BME280;32536;47.128;8.746;2023-02-28T01:42:29;91589.66;;;1.43;56.04
46778;BME280;32536;47.128;8.746;2023-02-28T01:45:08;91591.16;;;1.44;55.99
46778;BME280;32536;47.128;8.746;2023-02-28T01:47:43;91588.50;;;1.44;56.23
46778;BME280;32536;47.128;8.746;2023-02-28T01:50:20;91588.88;;;1.42;56.01
46778;BME280;32536;47.128;8.746;2023-02-28T01:52:50;91592.28;;;1.43;56.42
46778;BME280;32536;47.128;8.746;2023-02-28T01:55:19;91581.72;;;1.43;56.29
46778;BME280;32536;47.128;8.746;2023-02-28T01:57:52;91578.03;;;1.48;56.04
46778;BME280;32536;47.128;8.746;2023-02-28T02:00:24;91575.06;;;1.49;55.77
46778;BME280;32536;47.128;8.746;2023-02-28T02:02:57;91576.91;;;1.49;55.76
46778;BME280;32536;47.128;8.746;2023-02-28T02:05:30;91584.50;;;1.50;55.88
46778;BME280;32536;47.128;8.746;2023-02-28T02:08:02;91568.72;;;1.54;55.91
46778;BME280;32536;47.128;8.746;2023-02-28T02:10:43;91567.72;;;1.62;55.74
46778;BME280;32536;47.128;8.746;2023-02-28T02:13:54;91556.53;;;1.69;55.43
46778;BME280;32536;47.128;8.746;2023-02-28T02:40:38;91542.91;;;1.67;55.02
46778;BME280;32536;47.128;8.746;2023-02-28T02:46:06;91545.84;;;1.62;55.38
46778;BME280;32536;47.128;8.746;2023-02-28T02:48:44;91542.44;;;1.61;55.25
46778;BME280;32536;47.128;8.746;2023-02-28T02:51:14;91543.63;;;1.64;55.06
46778;BME280;32536;47.128;8.746;2023-02-28T02:56:19;91544.81;;;1.66;55.10
46778;BME280;32536;47.128;8.746;2023-02-28T02:58:50;91545.19;;;1.68;55.03
46778;BME280;32536;47.128;8.746;2023-02-28T03:01:22;91549.78;;;1.71;55.49
46778;BME280;32536;47.128;8.746;2023-02-28T03:04:04;91546.78;;;1.73;54.96
46778;BME280;32536;47.128;8.746;2023-02-28T03:06:41;91551.03;;;1.78;55.01
46778;BME280;32536;47.128;8.746;2023-02-28T03:09:07;91551.50;;;1.83;55.11
46778;BME280;32536;47.128;8.746;2023-02-28T03:11:36;91551.56;;;1.87;55.27
46778;BME280;32536;47.128;8.746;2023-02-28T03:14:35;91550.44;;;1.88;54.35
46778;BME280;32536;47.128;8.746;2023-02-28T03:26:11;91545.94;;;1.88;54.73
46778;BME280;32536;47.128;8.746;2023-02-28T03:31:40;91550.72;;;1.83;54.99
46778;BME280;32536;47.128;8.746;2023-02-28T03:34:15;91545.88;;;1.85;54.96
46778;BME280;32536;47.128;8.746;2023-02-28T03:37:13;91541.41;;;1.89;54.98
46778;BME280;32536;47.128;8.746;2023-02-28T03:39:47;91546.38;;;1.94;54.58
46778;BME280;32536;47.128;8.746;2023-02-28T03:42:22;91550.97;;;1.97;54.56
46778;BME280;32536;47.128;8.746;2023-02-28T03:45:03;91550.84;;;1.90;54.71
46778;BME280;32536;47.128;8.746;2023-02-28T03:48:17;91541.69;;;1.84;54.61
46778;BME280;32536;47.128;8.746;2023-02-28T03:50:53;91549.63;;;1.84;54.77
46778;BME280;32536;47.128;8.746;2023-02-28T03:53:27;91535.25;;;1.81;54.99
46778;BME280;32536;47.128;8.746;2023-02-28T03:56:06;91542.75;;;1.79;54.70
46778;BME280;32536;47.128;8.746;2023-02-28T03:59:02;91544.28;;;1.80;54.54
46778;BME280;32536;47.128;8.746;2023-02-28T04:01:49;91543.84;;;1.78;54.89
46778;BME280;32536;47.128;8.746;2023-02-28T04:04:16;91550.22;;;1.73;54.82
46778;BME280;32536;47.128;8.746;2023-02-28T04:06:49;91555.69;;;1.65;55.04
46778;BME280;32536;47.128;8.746;2023-02-28T04:09:17;91552.72;;;1.66;54.74
46778;BME280;32536;47.128;8.746;2023-02-28T04:11:45;91553.91;;;1.69;54.83
46778;BME280;32536;47.128;8.746;2023-02-28T04:14:19;91557.00;;;1.74;55.08
46778;BME280;32536;47.128;8.746;2023-02-28T04:16:45;91571.06;;;1.79;54.89
46778;BME280;32536;47.128;8.746;2023-02-28T04:19:13;91566.22;;;1.84;54.67
46778;BME280;32536;47.128;8.746;2023-02-28T04:21:51;91554.97;;;1.87;54.64
46778;BME280;32536;47.128;8.746;2023-02-28T04:24:24;91560.31;;;1.91;54.69
46778;BME280;32536;47.128;8.746;2023-02-28T04:26:54;91562.53;;;1.89;54.77
46778;BME280;32536;47.128;8.746;2023-02-28T04:29:31;91564.00;;;1.86;54.31
46778;BME280;32536;47.128;8.746;2023-02-28T04:31:59;91567.75;;;1.85;54.47
46778;BME280;32536;47.128;8.746;2023-02-28T04:34:27;91564.78;;;1.87;54.76
46778;BME280;32536;47.128;8.746;2023-02-28T04:36:56;91569.34;;;1.90;54.41
46778;BME280;32536;47.128;8.746;2023-02-28T04:39:24;91571.63;;;1.91;54.68
46778;BME280;32536;47.128;8.746;2023-02-28T04:41:50;91564.13;;;1.94;54.72
46778;BME280;32536;47.128;8.746;2023-02-28T04:44:17;91577.75;;;1.96;54.56
46778;BME280;32536;47.128;8.746;2023-02-28T04:46:44;91577.03;;;1.99;54.61
46778;BME280;32536;47.128;8.746;2023-02-28T04:49:11;91571.81;;;2.02;54.69
46778;BME280;32536;47.128;8.746;2023-02-28T04:51:38;91579.13;;;2.09;54.59
46778;BME280;32536;47.128;8.746;2023-02-28T04:54:06;91580.28;;;2.12;54.34
46778;BME280;32536;47.128;8.746;2023-02-28T04:56:33;91588.28;;;2.15;54.25
46778;BME280;32536;47.128;8.746;2023-02-28T04:59:00;91584.47;;;2.13;54.15
46778;BME280;32536;47.128;8.746;2023-02-28T05:01:32;91591.59;;;2.12;53.91
46778;BME280;32536;47.128;8.746;2023-02-28T05:04:01;91587.78;;;2.10;53.93
46778;BME280;32536;47.128;8.746;2023-02-28T05:06:47;91581.63;;;2.02;54.51
46778;BME280;32536;47.128;8.746;2023-02-28T05:09:14;91585.31;;;1.97;54.11
46778;BME280;32536;47.128;8.746;2023-02-28T05:11:41;91584.16;;;1.95;54.47
46778;BME280;32536;47.128;8.746;2023-02-28T05:14:12;91590.47;;;1.90;54.41
46778;BME280;32536;47.128;8.746;2023-02-28T05:16:39;91590.72;;;1.81;54.41
46778;BME280;32536;47.128;8.746;2023-02-28T05:19:06;91597.69;;;1.70;55.01
46778;BME280;32536;47.128;8.746;2023-02-28T05:21:35;91598.31;;;1.63;55.00
46778;BME280;32536;47.128;8.746;2023-02-28T05:24:09;91611.88;;;1.62;55.07
46778;BME280;32536;47.128;8.746;2023-02-28T05:26:40;91607.69;;;1.60;55.21
46778;BME280;32536;47.128;8.746;2023-02-28T05:29:09;91607.25;;;1.58;55.27
46778;BME280;32536;47.128;8.746;2023-02-28T05:31:36;91596.78;;;1.62;54.93
46778;BME280;32536;47.128;8.746;2023-02-28T05:34:03;91604.75;;;1.66;55.12
46778;BME280;32536;47.128;8.746;2023-02-28T05:36:30;91606.72;;;1.69;55.08
46778;BME280;32536;47.128;8.746;2023-02-28T05:38:57;91607.47;;;1.69;54.98
46778;BME280;32536;47.128;8.746;2023-02-28T05:41:24;91607.81;;;1.68;55.24
46778;BME280;32536;47.128;8.746;2023-02-28T05:43:51;91612.00;;;1.69;54.97
46778;BME280;32536;47.128;8.746;2023-02-28T05:46:18;91608.25;;;1.70;54.93
46778;BME280;32536;47.128;8.746;2023-02-28T05:48:46;91609.00;;;1.70;54.80
46778;BME280;32536;47.128;8.746;2023-02-28T05:51:14;91607.53;;;1.73;54.46
46778;BME280;32536;47.128;8.746;2023-02-28T05:53:40;91604.53;;;1.74;54.39
46778;BME280;32536;47.128;8.746;2023-02-28T05:56:07;91609.44;;;1.72;54.58
46778;BME280;32536;47.128;8.746;2023-02-28T05:58:34;91604.44;;;1.67;54.72
46778;BME280;32536;47.128;8.746;2023-02-28T06:01:20;91607.69;;;1.60;54.81
46778;BME280;32536;47.128;8.746;2023-02-28T06:04:05;91612.16;;;1.56;54.69
46778;BME280;32536;47.128;8.746;2023-02-28T06:06:51;91616.25;;;1.54;54.63
46778;BME280;32536;47.128;8.746;2023-02-28T06:09:18;91614.78;;;1.56;54.97
46778;BME280;32536;47.128;8.746;2023-02-28T06:11:46;91619.34;;;1.59;54.90
46778;BME280;32536;47.128;8.746;2023-02-28T06:14:17;91619.84;;;1.65;54.83
46778;BME280;32536;47.128;8.746;2023-02-28T06:16:45;91622.63;;;1.72;54.89
46778;BME280;32536;47.128;8.746;2023-02-28T06:19:12;91618.94;;;1.77;55.02
46778;BME280;32536;47.128;8.746;2023-02-28T06:21:40;91629.56;;;1.81;54.74
46778;BME280;32536;47.128;8.746;2023-02-28T06:24:07;91627.75;;;1.85;55.15
46778;BME280;32536;47.128;8.746;2023-02-28T06:26:35;91634.22;;;1.87;54.64
46778;BME280;32536;47.128;8.746;2023-02-28T06:29:02;91636.19;;;1.90;54.74
46778;BME280;32536;47.128;8.746;2023-02-28T06:31:29;91640.75;;;1.94;54.54
46778;BME280;32536;47.128;8.746;2023-02-28T06:33:56;91632.88;;;1.97;54.25
46778;BME280;32536;47.128;8.746;2023-02-28T06:36:23;91636.69;;;2.00;54.26
46778;BME280;32536;47.128;8.746;2023-02-28T06:38:50;91639.75;;;2.02;54.42
46778;BME280;32536;47.128;8.746;2023-02-28T06:41:22;91652.19;;;2.01;54.40
46778;BME280;32536;47.128;8.746;2023-02-28T06:43:49;91653.66;;;1.99;54.37
46778;BME280;32536;47.128;8.746;2023-02-28T06:46:17;91655.19;;;2.00;54.27
46778;BME280;32536;47.128;8.746;2023-02-28T06:48:44;91650.69;;;2.00;54.77
46778;BME280;32536;47.128;8.746;2023-02-28T06:51:14;91654.84;;;2.01;54.62
46778;BME280;32536;47.128;8.746;2023-02-28T06:53:42;91659.38;;;2.01;54.19
46778;BME280;32536;47.128;8.746;2023-02-28T06:56:11;91658.63;;;2.00;54.13
46778;BME280;32536;47.128;8.746;2023-02-28T06:58:40;91661.19;;;1.97;54.00
46778;BME280;32536;47.128;8.746;2023-02-28T07:01:08;91663.00;;;1.92;53.87
46778;BME280;32536;47.128;8.746;2023-02-28T07:03:35;91671.63;;;1.89;54.07
46778;BME280;32536;47.128;8.746;2023-02-28T07:06:02;91672.31;;;1.86;54.40
46778;BME280;32536;47.128;8.746;2023-02-28T07:08:30;91673.22;;;1.74;54.41
46778;BME280;32536;47.128;8.746;2023-02-28T07:10:58;91672.59;;;1.62;54.20
46778;BME280;32536;47.128;8.746;2023-02-28T07:13:25;91666.94;;;1.43;54.65
46778;BME280;32536;47.128;8.746;2023-02-28T07:16:01;91668.09;;;1.26;54.81
46778;BME280;32536;47.128;8.746;2023-02-28T07:18:30;91674.97;;;1.11;54.67
46778;BME280;32536;47.128;8.746;2023-02-28T07:20:57;91681.81;;;0.97;55.09
46778;BME280;32536;47.128;8.746;2023-02-28T07:23:24;91678.91;;;0.86;55.12
46778;BME280;32536;47.128;8.746;2023-02-28T07:25:51;91679.84;;;0.77;55.17
46778;BME280;32536;47.128;8.746;2023-02-28T07:28:17;91684.28;;;0.73;55.46
46778;BME280;32536;47.128;8.746;2023-02-28T07:30:44;91684.69;;;0.75;55.42
46778;BME280;32536;47.128;8.746;2023-02-28T07:33:11;91683.16;;;0.74;55.52
46778;BME280;32536;47.128;8.746;2023-02-28T07:35:38;91681.56;;;0.70;55.60
46778;BME280;32536;47.128;8.746;2023-02-28T07:38:04;91675.78;;;0.64;55.63
46778;BME280;32536;47.128;8.746;2023-02-28T07:40:34;91683.16;;;0.58;55.68
46778;BME280;32536;47.128;8.746;2023-02-28T07:43:02;91676.63;;;0.52;55.52
46778;BME280;32536;47.128;8.746;2023-02-28T07:45:29;91678.41;;;0.48;55.45
46778;BME280;32536;47.128;8.746;2023-02-28T07:48:00;91678.69;;;0.43;55.85
46778;BME280;32536;47.128;8.746;2023-02-28T07:50:27;91684.69;;;0.43;55.75
46778;BME280;32536;47.128;8.746;2023-02-28T07:52:58;91680.97;;;0.44;55.47
46778;BME280;32536;47.128;8.746;2023-02-28T07:55:25;91686.66;;;0.46;55.90
46778;BME280;32536;47.128;8.746;2023-02-28T07:57:52;91686.31;;;0.48;55.86
46778;BME280;32536;47.128;8.746;2023-02-28T08:00:19;91687.16;;;0.52;55.58
46778;BME280;32536;47.128;8.746;2023-02-28T08:02:46;91688.03;;;0.56;55.90
46778;BME280;32536;47.128;8.746;2023-02-28T08:05:12;91689.88;;;0.56;55.43
46778;BME280;32536;47.128;8.746;2023-02-28T08:07:39;91686.81;;;0.54;55.67
46778;BME280;32536;47.128;8.746;2023-02-28T08:10:06;91694.22;;;0.48;55.68
46778;BME280;32536;47.128;8.746;2023-02-28T08:12:35;91687.25;;;0.40;55.67
46778;BME280;32536;47.128;8.746;2023-02-28T08:15:02;91691.31;;;0.37;55.80
46778;BME280;32536;47.128;8.746;2023-02-28T08:17:29;91689.03;;;0.36;55.75
46778;BME280;32536;47.128;8.746;2023-02-28T08:19:56;91689.69;;;0.32;55.91
46778;BME280;32536;47.128;8.746;2023-02-28T08:22:23;91686.41;;;0.36;55.90
46778;BME280;32536;47.128;8.746;2023-02-28T08:24:49;91681.44;;;0.34;55.85
46778;BME280;32536;47.128;8.746;2023-02-28T08:27:16;91685.97;;;0.34;55.78
46778;BME280;32536;47.128;8.746;2023-02-28T08:29:43;91696.06;;;0.31;55.71
46778;BME280;32536;47.128;8.746;2023-02-28T08:32:09;91697.59;;;0.32;55.86
46778;BME280;32536;47.128;8.746;2023-02-28T08:34:39;91701.78;;;0.34;56.13
46778;BME280;32536;47.128;8.746;2023-02-28T08:37:06;91700.41;;;0.40;56.18
46778;BME280;32536;47.128;8.746;2023-02-28T08:39:36;91703.16;;;0.43;56.17
46778;BME280;32536;47.128;8.746;2023-02-28T08:42:04;91696.00;;;0.44;55.90
46778;BME280;32536;47.128;8.746;2023-02-28T08:44:31;91684.13;;;0.50;56.05
46778;BME280;32536;47.128;8.746;2023-02-28T08:46:57;91692.59;;;0.59;55.66
46778;BME280;32536;47.128;8.746;2023-02-28T08:49:24;91693.31;;;0.56;55.90
46778;BME280;32536;47.128;8.746;2023-02-28T08:51:51;91685.31;;;0.53;55.90
46778;BME280;32536;47.128;8.746;2023-02-28T08:54:18;91686.41;;;0.52;55.93
46778;BME280;32536;47.128;8.746;2023-02-28T08:56:45;91689.13;;;0.55;56.10
46778;BME280;32536;47.128;8.746;2023-02-28T08:59:13;91689.63;;;0.61;55.94
46778;BME280;32536;47.128;8.746;2023-02-28T09:01:40;91694.31;;;0.68;56.16
46778;BME280;32536;47.128;8.746;2023-02-28T09:04:09;91703.75;;;0.69;56.03
46778;BME280;32536;47.128;8.746;2023-02-28T09:07:02;91692.44;;;0.68;56.15
46778;BME280;32536;47.128;8.746;2023-02-28T09:09:28;91702.06;;;0.76;55.81
46778;BME280;32536;47.128;8.746;2023-02-28T09:11:56;91699.94;;;0.82;55.96
46778;BME280;32536;47.128;8.746;2023-02-28T09:14:23;91700.84;;;0.90;55.85
46778;BME280;32536;47.128;8.746;2023-02-28T09:16:50;91699.56;;;1.00;55.72
46778;BME280;32536;47.128;8.746;2023-02-28T09:19:16;91701.94;;;1.05;55.88
46778;BME280;32536;47.128;8.746;2023-02-28T09:21:43;91702.53;;;1.14;55.80
46778;BME280;32536;47.128;8.746;2023-02-28T09:24:10;91704.91;;;1.19;55.74
46778;BME280;32536;47.128;8.746;2023-02-28T09:26:39;91704.97;;;1.23;55.25
46778;BME280;32536;47.128;8.746;2023-02-28T09:29:06;91708.47;;;1.27;55.23
46778;BME280;32536;47.128;8.746;2023-02-28T09:31:33;91707.78;;;1.30;55.40
46778;BME280;32536;47.128;8.746;2023-02-28T09:33:59;91715.34;;;1.32;55.36
46778;BME280;32536;47.128;8.746;2023-02-28T09:36:26;91718.59;;;1.25;55.32
46778;BME280;32536;47.128;8.746;2023-02-28T09:38:55;91721.84;;;1.18;55.29
46778;BME280;32536;47.128;8.746;2023-02-28T09:41:24;91720.25;;;1.14;55.36
46778;BME280;32536;47.128;8.746;2023-02-28T09:43:56;91728.06;;;1.10;55.46
46778;BME280;32536;47.128;8.746;2023-02-28T09:46:38;91720.47;;;1.08;55.62
46778;BME280;32536;47.128;8.746;2023-02-28T09:49:14;91724.66;;;1.09;55.56
46778;BME280;32536;47.128;8.746;2023-02-28T09:54:19;91732.00;;;1.00;55.75
46778;BME280;32536;47.128;8.746;2023-02-28T09:56:57;91738.97;;;0.92;55.62
46778;BME280;32536;47.128;8.746;2023-02-28T10:00:12;91746.88;;;0.92;55.74
46778;BME280;32536;47.128;8.746;2023-02-28T10:05:34;91750.03;;;0.98;55.57
46778;BME280;32536;47.128;8.746;2023-02-28T10:08:33;91737.59;;;0.99;55.42
46778;BME280;32536;47.128;8.746;2023-02-28T10:11:22;91748.50;;;0.97;55.72
46778;BME280;32536;47.128;8.746;2023-02-28T10:13:58;91747.47;;;1.02;55.77
46778;BME280;32536;47.128;8.746;2023-02-28T10:16:35;91748.75;;;1.08;56.10
46778;BME280;32536;47.128;8.746;2023-02-28T10:19:16;91739.03;;;1.12;55.58
46778;BME280;32536;47.128;8.746;2023-02-28T10:21:56;91749.66;;;1.16;55.80
46778;BME280;32536;47.128;8.746;2023-02-28T10:24:45;91748.06;;;1.27;55.72
46778;BME280;32536;47.128;8.746;2023-02-28T10:27:16;91741.41;;;1.33;55.66
46778;BME280;32536;47.128;8.746;2023-02-28T10:29:52;91751.00;;;1.41;55.28
46778;BME280;32536;47.128;8.746;2023-02-28T10:32:27;91744.75;;;1.50;55.14
46778;BME280;32536;47.128;8.746;2023-02-28T10:34:59;91750.91;;;1.54;55.11
46778;BME280;32536;47.128;8.746;2023-02-28T10:37:32;91748.66;;;1.56;55.26
46778;BME280;32536;47.128;8.746;2023-02-28T10:40:05;91752.09;;;1.56;55.67
46778;BME280;32536;47.128;8.746;2023-02-28T10:42:34;91748.38;;;1.61;55.84
46778;BME280;32536;47.128;8.746;2023-02-28T10:45:15;91746.25;;;1.67;55.19
46778;BME280;32536;47.128;8.746;2023-02-28T10:48:04;91747.38;;;1.66;55.01
46778;BME280;32536;47.128;8.746;2023-02-28T11:01:44;91762.06;;;1.83;55.51
46778;BME280;32536;47.128;8.746;2023-02-28T11:07:20;91763.50;;;1.80;55.13
46778;BME280;32536;47.128;8.746;2023-02-28T11:09:50;91769.22;;;1.82;55.24
46778;BME280;32536;47.128;8.746;2023-02-28T11:15:00;91764.25;;;1.81;55.46
46778;BME280;32536;47.128;8.746;2023-02-28T11:17:54;91761.69;;;1.84;55.23
46778;BME280;32536;47.128;8.746;2023-02-28T11:20:29;91761.78;;;1.88;55.52
46778;BME280;32536;47.128;8.746;2023-02-28T11:22:59;91767.19;;;1.95;55.58
46778;BME280;32536;47.128;8.746;2023-02-28T11:25:34;91763.81;;;1.95;55.34
46778;BME280;32536;47.128;8.746;2023-02-28T11:28:04;91758.09;;;1.92;55.53
46778;BME280;32536;47.128;8.746;2023-02-28T11:30:36;91765.13;;;1.85;55.50
46778;BME280;32536;47.128;8.746;2023-02-28T11:34:10;91752.94;;;1.80;55.46
46778;BME280;32536;47.128;8.746;2023-02-28T11:38:58;91761.34;;;1.66;55.24
46778;BME280;32536;47.128;8.746;2023-02-28T11:42:01;91756.59;;;1.56;55.29
46778;BME280;32536;47.128;8.746;2023-02-28T11:47:47;91760.75;;;1.57;55.60
46778;BME280;32536;47.128;8.746;2023-02-28T11:59:21;91761.50;;;1.73;55.27
46778;BME280;32536;47.128;8.746;2023-02-28T12:05:09;91758.88;;;1.57;55.37
46778;BME280;32536;47.128;8.746;2023-02-28T12:11:11;91760.75;;;1.57;55.49
46778;BME280;32536;47.128;8.746;2023-02-28T12:14:14;91754.03;;;1.59;55.62
46778;BME280;32536;47.128;8.746;2023-02-28T12:22:54;91759.41;;;1.83;55.55
46778;BME280;32536;47.128;8.746;2023-02-28T12:28:17;91753.44;;;1.86;55.74
46778;BME280;32536;47.128;8.746;2023-02-28T12:33:28;91745.38;;;1.98;55.51
46778;BME280;32536;47.128;8.746;2023-02-28T12:36:05;91744.34;;;2.03;55.34
46778;BME280;32536;47.128;8.746;2023-02-28T12:38:36;91740.31;;;2.09;55.39
46778;BME280;32536;47.128;8.746;2023-02-28T12:41:16;91745.75;;;2.16;55.64
46778;BME280;32536;47.128;8.746;2023-02-28T12:44:01;91745.09;;;2.23;55.50
46778;BME280;32536;47.128;8.746;2023-02-28T12:46:44;91746.28;;;2.26;55.03
46778;BME280;32536;47.128;8.746;2023-02-28T12:49:23;91738.75;;;2.28;54.96
46778;BME280;32536;47.128;8.746;2023-02-28T12:52:01;91741.47;;;2.31;54.84
46778;BME280;32536;47.128;8.746;2023-02-28T12:54:52;91747.59;;;2.35;55.09
46778;BME280;32536;47.128;8.746;2023-02-28T12:57:42;91746.84;;;2.35;55.05
46778;BME280;32536;47.128;8.746;2023-02-28T13:00:19;91752.53;;;2.37;54.76
46778;BME280;32536;47.128;8.746;2023-02-28T13:05:49;91744.78;;;2.48;54.53
46778;BME280;32536;47.128;8.746;2023-02-28T13:11:26;91751.66;;;2.52;54.49
46778;BME280;32536;47.128;8.746;2023-02-28T13:14:02;91758.06;;;2.51;54.72
46778;BME280;32536;47.128;8.746;2023-02-28T13:17:03;91748.28;;;2.52;54.86
46778;BME280;32536;47.128;8.746;2023-02-28T13:19:41;91753.56;;;2.52;54.52
46778;BME280;32536;47.128;8.746;2023-02-28T13:22:46;91754.59;;;2.47;54.50
46778;BME280;32536;47.128;8.746;2023-02-28T13:27:51;91755.06;;;2.30;54.99
46778;BME280;32536;47.128;8.746;2023-02-28T13:33:30;91758.72;;;2.25;54.62
46778;BME280;32536;47.128;8.746;2023-02-28T13:38:49;91756.72;;;2.18;54.85
46778;BME280;32536;47.128;8.746;2023-02-28T14:00:21;91762.88;;;2.65;54.59
46778;BME280;32536;47.128;8.746;2023-02-28T14:03:23;91770.88;;;2.69;54.67
46778;BME280;32536;47.128;8.746;2023-02-28T14:09:21;91760.84;;;2.59;54.22
46778;BME280;32536;47.128;8.746;2023-02-28T14:11:54;91761.00;;;2.46;54.72
46778;BME280;32536;47.128;8.746;2023-02-28T14:17:05;91770.41;;;2.44;55.15
46778;BME280;32536;47.128;8.746;2023-02-28T14:19:38;91770.41;;;2.44;54.77
46778;BME280;32536;47.128;8.746;2023-02-28T14:25:22;91773.53;;;2.49;54.66
46778;BME280;32536;47.128;8.746;2023-02-28T14:31:41;91775.97;;;2.58;54.86
46778;BME280;32536;47.128;8.746;2023-02-28T14:37:27;91781.81;;;2.48;54.75
46778;BME280;32536;47.128;8.746;2023-02-28T14:39:57;91784.66;;;2.39;54.67
46778;BME280;32536;47.128;8.746;2023-02-28T14:42:29;91785.38;;;2.36;55.27
46778;BME280;32536;47.128;8.746;2023-02-28T14:44:56;91788.03;;;2.36;54.63
46778;BME280;32536;47.128;8.746;2023-02-28T14:47:27;91780.72;;;2.29;55.07
46778;BME280;32536;47.128;8.746;2023-02-28T14:49:59;91785.59;;;2.27;54.91
46778;BME280;32536;47.128;8.746;2023-02-28T14:52:31;91786.78;;;2.30;54.77
46778;BME280;32536;47.128;8.746;2023-02-28T14:55:04;91787.16;;;2.32;54.86
46778;BME280;32536;47.128;8.746;2023-02-28T14:57:38;91791.72;;;2.31;54.92
46778;BME280;32536;47.128;8.746;2023-02-28T15:00:26;91788.31;;;2.31;54.48
46778;BME280;32536;47.128;8.746;2023-02-28T15:02:55;91795.94;;;2.36;55.11
46778;BME280;32536;47.128;8.746;2023-02-28T15:05:29;91793.03;;;2.41;54.55
46778;BME280;32536;47.128;8.746;2023-02-28T15:08:12;91794.63;;;2.46;55.10
46778;BME280;32536;47.128;8.746;2023-02-28T15:11:01;91801.53;;;2.50;54.49
46778;BME280;32536;47.128;8.746;2023-02-28T15:13:40;91804.56;;;2.52;54.61
46778;BME280;32536;47.128;8.746;2023-02-28T15:16:15;91801.16;;;2.52;54.63
46778;BME280;32536;47.128;8.746;2023-02-28T15:18:53;91801.53;;;2.50;54.62
46778;BME280;32536;47.128;8.746;2023-02-28T15:21:49;91810.28;;;2.54;54.43
46778;BME280;32536;47.128;8.746;2023-02-28T15:24:42;91807.97;;;2.53;54.19
46778;BME280;32536;47.128;8.746;2023-02-28T15:27:20;91810.63;;;2.53;54.50
46778;BME280;32536;47.128;8.746;2023-02-28T15:29:57;91802.34;;;2.54;54.99
46778;BME280;32536;47.128;8.746;2023-02-28T15:32:39;91799.00;;;2.58;54.74
46778;BME280;32536;47.128;8.746;2023-02-28T15:35:29;91800.94;;;2.61;54.14
46778;BME280;32536;47.128;8.746;2023-02-28T15:40:54;91805.53;;;2.64;54.64
46778;BME280;32536;47.128;8.746;2023-02-28T15:43:28;91811.59;;;2.64;54.21
46778;BME280;32536;47.128;8.746;2023-02-28T15:48:31;91808.59;;;2.66;54.34
46778;BME280;32536;47.128;8.746;2023-02-28T15:53:59;91812.34;;;2.65;54.24
46778;BME280;32536;47.128;8.746;2023-02-28T15:56:51;91816.88;;;2.64;54.24
46778;BME280;32536;47.128;8.746;2023-02-28T15:59:21;91820.56;;;2.60;54.15
46778;BME280;32536;47.128;8.746;2023-02-28T16:04:36;91830.59;;;2.50;54.60
46778;BME280;32536;47.128;8.746;2023-02-28T16:07:28;91827.47;;;2.45;54.57
46778;BME280;32536;47.128;8.746;2023-02-28T16:09:55;91824.47;;;2.46;54.40
46778;BME280;32536;47.128;8.746;2023-02-28T16:12:29;91835.47;;;2.48;54.68
46778;BME280;32536;47.128;8.746;2023-02-28T16:15:00;91826.81;;;2.51;54.62
46778;BME280;32536;47.128;8.746;2023-02-28T16:17:33;91824.97;;;2.52;54.69